Time;durP1;ratioP1;P1;durP2;ratioP2;P2;SDS_P1;SDS_P2;PMS_P1;PMS_P2;Temp;Humidity;BMP_temperature;BMP_pressure;BME280_temperature;BME280_humidity;BME280_pressure;Samples;Min_cycle;Max_cycle;Signal;HPM_P1;HPM_P2
2022/09/08 00:00:11;;;;;;;7.63;5.60;;;17.90;22.60;;;18.02;55.87;100574.34;4934563;29;20459;-72
2022/09/08 00:02:40;;;;;;;9.00;4.43;;;17.90;22.20;;;18.08;55.90;100573.31;4935648;29;20437;-72
2022/09/08 00:05:13;;;;;;;7.40;4.63;;;17.80;22.10;;;18.04;55.99;100588.63;4933832;29;20471;-72
2022/09/08 00:07:42;;;;;;;11.30;4.67;;;17.80;22.00;;;18.08;55.61;100589.75;4933770;29;20753;-72
2022/09/08 00:10:12;;;;;;;6.17;4.00;;;17.90;21.90;;;17.98;56.07;100589.66;4934994;29;20468;-71
2022/09/08 00:12:42;;;;;;;7.73;4.70;;;17.80;21.90;;;17.92;56.03;100586.03;4932453;29;20423;-71
2022/09/08 00:15:13;;;;;;;9.70;4.90;;;17.80;22.00;;;17.92;55.92;100586.03;4936016;29;20474;-72
2022/09/08 00:17:42;;;;;;;7.50;4.67;;;17.80;21.90;;;17.85;56.09;100582.69;4933508;29;20419;-71
2022/09/08 00:20:12;;;;;;;5.53;4.87;;;17.70;21.90;;;17.85;56.06;100584.59;4932375;29;20443;-72
2022/09/08 00:22:42;;;;;;;6.83;4.27;;;17.70;22.10;;;17.73;56.19;100585.56;4933890;29;20514;-72
2022/09/08 00:25:11;;;;;;;8.00;4.30;;;17.60;21.90;;;17.74;56.35;100583.66;4930286;29;20423;-71
2022/09/08 00:27:40;;;;;;;8.83;5.37;;;17.60;22.10;;;17.77;56.16;100585.88;4929682;29;20412;-72
2022/09/08 00:30:11;;;;;;;13.33;5.30;;;17.60;22.10;;;17.72;56.18;100572.94;4928509;29;20453;-71
2022/09/08 00:32:40;;;;;;;9.90;5.00;;;17.60;22.00;;;17.73;56.14;100577.34;4923755;29;20439;-70
2022/09/08 00:35:14;;;;;;;12.87;5.60;;;17.60;21.90;;;17.75;56.03;100575.19;4930371;29;20484;-72
2022/09/08 00:37:49;;;;;;;4.87;4.30;;;17.60;21.80;;;17.64;56.34;100576.16;4933477;29;20476;-71
2022/09/08 00:40:20;;;;;;;6.93;4.53;;;17.50;22.00;;;17.66;56.12;100564.97;4944862;28;20950;-71
2022/09/08 00:42:58;;;;;;;9.53;4.40;;;17.50;22.00;;;17.69;55.90;100569.91;4930226;29;20603;-71
2022/09/08 00:45:39;;;;;;;3.93;3.43;;;17.50;21.80;;;17.64;56.02;100580.78;4933569;28;20467;-71
2022/09/08 00:48:16;;;;;;;7.93;3.67;;;17.50;21.70;;;17.55;56.31;100572.19;4928665;29;20758;-71
2022/09/08 00:50:46;;;;;;;7.00;4.23;;;17.40;21.90;;;17.53;56.21;100573.50;4933516;29;20422;-72
2022/09/08 00:53:19;;;;;;;8.20;4.40;;;17.40;21.80;;;17.47;56.64;100569.09;4925931;29;20435;-72
2022/09/08 00:55:48;;;;;;;4.90;4.23;;;17.30;21.90;;;17.54;56.08;100578.72;4934376;29;21038;-71
2022/09/08 00:58:17;;;;;;;7.97;5.20;;;17.40;21.80;;;17.55;55.95;100569.44;4932967;29;20832;-72
2022/09/08 01:00:47;;;;;;;5.53;5.03;;;17.30;21.60;;;17.50;55.83;100566.66;4925537;29;20441;-72
2022/09/08 01:03:17;;;;;;;9.43;4.50;;;17.30;21.50;;;17.47;56.12;100566.34;4933502;28;20854;-73
2022/09/08 01:05:57;;;;;;;6.03;4.07;;;17.30;21.60;;;17.49;55.93;100562.25;4933191;28;20415;-72
2022/09/08 01:14:19;;;;;;;9.03;5.20;;;17.20;21.50;;;17.28;56.28;100544.75;4925167;29;20496;-73
2022/09/08 01:16:49;;;;;;;16.00;4.30;;;17.10;21.60;;;17.22;56.48;100558.66;4928998;29;20883;-73
2022/09/08 01:19:26;;;;;;;8.30;4.70;;;17.10;21.80;;;17.17;56.45;100556.69;4927846;29;20767;-72
2022/09/08 01:22:16;;;;;;;7.93;4.57;;;17.10;21.60;;;17.23;56.14;100549.38;4936632;29;20425;-72
2022/09/08 01:24:53;;;;;;;4.20;3.80;;;17.10;21.60;;;17.13;56.55;100541.88;4932869;29;21010;-72
2022/09/08 01:27:27;;;;;;;16.27;5.10;;;17.00;21.80;;;17.19;56.29;100548.19;4945911;28;20418;-71
2022/09/08 01:30:02;;;;;;;9.50;4.73;;;17.00;21.60;;;17.15;56.17;100558.81;4934602;28;20855;-72
2022/09/08 01:32:35;;;;;;;5.07;4.07;;;17.00;21.40;;;17.08;56.49;100563.66;4932612;29;20418;-70
2022/09/08 01:35:05;;;;;;;7.53;4.63;;;16.90;21.60;;;16.98;56.85;100559.97;4932053;29;20461;-71
2022/09/08 01:37:34;;;;;;;4.73;4.27;;;16.90;22.00;;;16.88;57.16;100564.22;4937821;29;20483;-72
2022/09/08 01:40:04;;;;;;;6.80;4.53;;;16.80;22.20;;;16.86;57.28;100554.59;4933786;28;20468;-72
2022/09/08 01:42:38;;;;;;;5.23;4.03;;;16.80;22.60;;;16.84;57.46;100557.59;4932179;29;20473;-72
2022/09/08 01:45:08;;;;;;;7.47;3.73;;;16.70;22.90;;;16.73;57.71;100554.97;4929395;29;20508;-72
2022/09/08 01:47:37;;;;;;;4.90;4.23;;;16.70;23.20;;;16.78;57.41;100563.22;4932537;28;20429;-72
2022/09/08 01:50:06;;;;;;;4.27;3.37;;;16.70;23.10;;;16.67;57.83;100561.41;4941434;28;20572;-72
2022/09/08 01:52:35;;;;;;;11.40;4.17;;;16.60;23.30;;;16.70;57.77;100569.13;4935687;29;20462;-72
2022/09/08 01:55:05;;;;;;;4.47;3.90;;;16.60;23.40;;;16.85;57.21;100556.50;4936027;29;20443;-71
2022/09/08 01:57:34;;;;;;;7.20;3.97;;;16.60;23.20;;;16.87;57.04;100557.09;4933488;29;20839;-72
2022/09/08 02:00:06;;;;;;;6.20;3.60;;;16.70;22.90;;;16.83;57.12;100550.47;4927244;29;20608;-72
2022/09/08 02:02:35;;;;;;;4.30;3.83;;;16.70;22.70;;;16.86;56.74;100552.69;4934183;29;20428;-73
2022/09/08 02:05:05;;;;;;;12.20;4.07;;;16.70;22.50;;;16.86;56.87;100544.50;4931112;29;20436;-72
2022/09/08 02:07:37;;;;;;;6.20;4.57;;;16.70;22.30;;;16.85;56.58;100536.53;4933076;29;20520;-71
2022/09/08 02:10:08;;;;;;;7.57;3.80;;;16.70;22.10;;;16.87;56.20;100527.03;4937004;28;20447;-72
2022/09/08 02:12:36;;;;;;;4.20;3.67;;;16.70;21.50;;;16.83;56.07;100528.63;4953229;29;20441;-71
2022/09/08 02:15:09;;;;;;;5.33;3.20;;;16.70;21.10;;;16.87;55.39;100534.38;4959110;29;20472;-70
2022/09/08 02:17:40;;;;;;;3.60;3.10;;;16.70;20.50;;;16.91;55.06;100530.91;4953497;29;20826;-73
2022/09/08 02:20:09;;;;;;;6.20;2.83;;;16.70;20.00;;;16.89;54.94;100530.31;4954619;29;20963;-74
2022/09/08 02:22:38;;;;;;;4.13;3.10;;;16.70;19.50;;;16.87;54.96;100537.13;4952787;28;20515;-74
2022/09/08 02:25:08;;;;;;;7.77;4.20;;;16.70;19.40;;;16.90;54.63;100536.59;4948410;29;20490;-74
2022/09/08 02:27:37;;;;;;;4.10;3.70;;;16.70;19.10;;;16.83;54.92;100541.44;4951260;29;20435;-72
2022/09/08 02:30:09;;;;;;;6.17;4.13;;;16.60;19.20;;;16.73;55.01;100542.13;4951898;29;20428;-72
2022/09/08 02:32:39;;;;;;;8.47;3.70;;;16.60;19.20;;;16.80;54.91;100544.66;4955409;29;20436;-72
2022/09/08 02:35:09;;;;;;;3.47;2.93;;;16.60;19.10;;;16.72;55.18;100545.94;4935065;28;20476;-71
2022/09/08 02:37:38;;;;;;;3.90;3.50;;;16.60;19.20;;;16.81;54.67;100538.94;4930202;29;20491;-72
2022/09/08 02:40:09;;;;;;;5.10;3.60;;;16.60;18.80;;;16.74;54.62;100535.59;4935404;29;20478;-71
2022/09/08 02:42:38;;;;;;;6.83;3.50;;;16.60;18.50;;;16.72;54.44;100524.06;4929106;29;20458;-72
2022/09/08 02:45:10;;;;;;;13.23;3.57;;;16.60;18.30;;;16.66;54.50;100522.34;4931367;29;20559;-70
2022/09/08 02:47:39;;;;;;;4.63;3.47;;;16.50;18.10;;;16.65;54.44;100517.97;4930758;28;20423;-72
2022/09/08 02:50:09;;;;;;;3.90;3.10;;;16.50;18.00;;;16.64;54.34;100510.03;4941868;29;20929;-72
2022/09/08 02:52:38;;;;;;;4.83;3.30;;;16.50;17.90;;;16.60;54.21;100512.44;4938659;29;20440;-72
2022/09/08 02:55:08;;;;;;;4.30;3.37;;;16.50;17.70;;;16.57;54.50;100518.34;4938506;29;20474;-72
2022/09/08 02:57:37;;;;;;;5.27;3.03;;;16.40;17.80;;;16.52;54.48;100518.28;4936696;29;20511;-72
2022/09/08 03:00:10;;;;;;;4.10;3.07;;;16.40;17.90;;;16.49;54.69;100514.16;4937552;29;20446;-72
2022/09/08 03:02:39;;;;;;;8.33;3.30;;;16.40;17.90;;;16.49;54.47;100513.31;4938379;29;20451;-73
2022/09/08 03:05:09;;;;;;;3.87;3.40;;;16.30;17.80;;;16.49;54.55;100514.16;4937174;29;20461;-72
2022/09/08 03:07:38;;;;;;;4.40;3.00;;;16.40;17.90;;;16.46;54.58;100516.53;4939715;29;20427;-72
2022/09/08 03:10:08;;;;;;;4.80;3.27;;;16.30;17.90;;;16.45;54.70;100510.28;4937242;29;20429;-72
2022/09/08 03:12:37;;;;;;;5.23;3.90;;;16.20;17.90;;;16.39;54.80;100504.97;4935054;29;20428;-72
2022/09/08 03:15:09;;;;;;;4.30;3.67;;;16.30;17.90;;;16.34;55.02;100507.63;4933480;29;20454;-71
2022/09/08 03:17:38;;;;;;;6.00;3.10;;;16.20;18.20;;;16.30;55.00;100498.28;4934819;29;20551;-72
2022/09/08 03:20:08;;;;;;;8.47;2.93;;;16.10;18.30;;;16.24;55.28;100502.81;4934769;29;20454;-71
2022/09/08 03:22:37;;;;;;;5.40;2.50;;;16.10;18.30;;;16.18;55.63;100494.78;4929042;29;20441;-72
2022/09/08 03:25:07;;;;;;;5.57;3.40;;;16.10;18.80;;;16.16;55.64;100494.22;4932619;29;20511;-72
2022/09/08 03:27:36;;;;;;;4.20;3.80;;;16.10;18.90;;;16.13;55.70;100483.78;4935828;29;20771;-71
2022/09/08 03:30:09;;;;;;;3.20;2.77;;;16.00;19.10;;;16.09;55.82;100484.31;4937304;29;20894;-73
2022/09/08 03:32:44;;;;;;;3.60;3.30;;;16.00;19.10;;;16.09;55.67;100476.09;4934594;29;20547;-71
2022/09/08 03:35:18;;;;;;;4.50;2.83;;;16.00;19.10;;;16.09;55.55;100473.38;4940736;28;20464;-72
2022/09/08 03:37:49;;;;;;;5.77;3.40;;;16.00;18.90;;;16.06;55.33;100465.69;4933868;29;20480;-71
2022/09/08 03:40:19;;;;;;;4.40;3.13;;;15.90;18.60;;;16.02;55.32;100455.53;4938529;29;20448;-72
2022/09/08 03:42:48;;;;;;;4.00;3.37;;;15.90;18.90;;;16.01;55.30;100453.88;4950010;28;20453;-72
2022/09/08 03:45:19;;;;;;;5.60;3.93;;;15.90;18.40;;;15.97;55.42;100458.19;4937689;29;20527;-72
2022/09/08 03:47:48;;;;;;;4.40;3.60;;;15.80;18.50;;;16.04;54.89;100464.28;4932858;29;20884;-73
2022/09/08 03:50:18;;;;;;;8.50;3.13;;;15.80;18.00;;;15.95;54.84;100472.06;4937125;29;20542;-72
2022/09/08 03:52:47;;;;;;;4.60;3.30;;;15.80;17.70;;;15.99;54.80;100467.75;4934798;29;21028;-72
2022/09/08 03:55:17;;;;;;;4.57;2.97;;;15.80;17.70;;;15.97;54.56;100475.38;4928069;29;21035;-71
2022/09/08 03:57:46;;;;;;;4.63;2.87;;;15.80;17.40;;;15.94;54.46;100473.13;4932546;29;20543;-74
2022/09/08 04:00:16;;;;;;;6.63;3.90;;;15.80;17.00;;;15.91;54.40;100476.34;4934587;29;20945;-72
2022/09/08 04:02:46;;;;;;;3.70;3.00;;;15.80;17.20;;;15.95;54.06;100474.78;4939554;29;20939;-72
2022/09/08 04:05:15;;;;;;;5.50;3.20;;;15.80;16.80;;;15.93;54.13;100466.00;4942717;28;20455;-72
2022/09/08 04:07:44;;;;;;;4.77;3.70;;;15.80;16.60;;;15.94;54.07;100475.03;4940435;28;20412;-70
2022/09/08 04:10:15;;;;;;;8.00;4.37;;;15.80;16.50;;;15.84;54.21;100478.41;4935743;29;20440;-71
2022/09/08 04:12:46;;;;;;;4.17;3.67;;;15.70;16.50;;;15.86;54.32;100470.81;4936457;29;20418;-70
2022/09/08 04:15:17;;;;;;;6.70;3.73;;;15.70;16.70;;;15.92;54.12;100460.81;4940806;28;20487;-70
2022/09/08 04:17:45;;;;;;;7.83;4.40;;;15.70;16.30;;;15.88;53.97;100460.47;4936147;29;20934;-71
2022/09/08 04:20:16;;;;;;;10.60;3.20;;;15.70;16.30;;;15.84;53.98;100456.56;4930974;29;20904;-71
2022/09/08 04:22:45;;;;;;;4.13;3.57;;;15.70;16.10;;;15.82;54.00;100456.03;4941654;29;20407;-73
2022/09/08 04:25:14;;;;;;;9.90;4.03;;;15.70;16.60;;;15.84;53.85;100456.56;4933990;29;20942;-71
2022/09/08 04:27:43;;;;;;;4.73;4.00;;;15.70;16.10;;;15.81;53.94;100457.09;4938538;29;20936;-71
2022/09/08 04:30:14;;;;;;;6.07;3.60;;;15.60;16.10;;;15.78;54.06;100443.91;4939104;29;20979;-72
2022/09/08 04:32:44;;;;;;;9.53;3.97;;;15.60;16.20;;;15.75;54.24;100449.06;4936025;29;20808;-72
2022/09/08 04:35:13;;;;;;;4.63;3.90;;;15.60;16.30;;;15.70;54.25;100452.53;4934202;29;20555;-72
2022/09/08 04:37:42;;;;;;;5.13;3.57;;;15.60;16.30;;;15.70;54.44;100447.06;4944540;29;20458;-72
2022/09/08 04:40:11;;;;;;;5.30;3.00;;;15.50;16.40;;;15.78;53.96;100446.66;4934380;29;20800;-72
2022/09/08 04:42:40;;;;;;;6.30;3.53;;;15.60;16.30;;;15.75;54.11;100428.06;4938725;29;20530;-72
2022/09/08 04:45:11;;;;;;;7.10;5.00;;;15.60;16.30;;;15.77;53.98;100431.38;4933228;29;20453;-72
2022/09/08 04:47:39;;;;;;;5.50;3.50;;;15.60;16.20;;;15.75;53.92;100428.06;4938748;29;20442;-72
2022/09/08 04:50:10;;;;;;;21.87;7.10;;;15.60;16.00;;;15.75;53.82;100433.50;4933532;29;20444;-72
2022/09/08 04:52:39;;;;;;;7.07;4.27;;;15.60;15.90;;;15.81;53.81;100434.44;4930240;29;20440;-71
2022/09/08 04:55:10;;;;;;;4.93;3.20;;;15.60;15.80;;;15.86;53.54;100437.25;4932167;29;20490;-72
2022/09/08 04:57:38;;;;;;;10.40;3.43;;;15.70;15.80;;;15.82;53.41;100439.66;4938944;29;20526;-73
2022/09/08 05:00:10;;;;;;;6.37;3.23;;;15.60;15.40;;;15.99;53.20;100442.34;4949085;29;20453;-71
2022/09/08 05:02:38;;;;;;;5.30;3.67;;;15.70;15.40;;;16.08;52.87;100444.44;4945505;29;20520;-72
2022/09/08 05:05:09;;;;;;;11.10;3.47;;;15.80;15.10;;;16.09;52.99;100443.34;4953111;28;20468;-72
2022/09/08 05:07:38;;;;;;;9.00;4.10;;;15.80;15.10;;;16.09;52.77;100440.63;4946611;29;20430;-71
2022/09/08 05:10:08;;;;;;;7.00;3.87;;;15.90;14.80;;;16.05;53.04;100444.94;4933841;29;20444;-71
2022/09/08 05:12:37;;;;;;;6.87;4.07;;;15.90;15.00;;;16.02;53.14;100447.34;4930510;29;20538;-72
2022/09/08 05:15:07;;;;;;;5.40;4.43;;;15.80;14.90;;;16.07;53.01;100447.41;4934968;28;20486;-72
2022/09/08 05:17:36;;;;;;;5.50;4.33;;;15.80;14.90;;;16.05;53.27;100444.94;4936725;29;20414;-71
2022/09/08 05:20:07;;;;;;;8.53;4.30;;;15.80;15.00;;;16.04;52.97;100447.91;4934243;29;20422;-72
2022/09/08 05:22:37;;;;;;;5.10;3.83;;;15.80;14.80;;;16.04;53.13;100456.91;4935154;28;20463;-71
2022/09/08 05:25:12;;;;;;;8.47;3.90;;;15.80;14.90;;;15.98;53.16;100441.53;4938329;28;20468;-71
2022/09/08 05:27:41;;;;;;;13.77;4.23;;;15.80;14.90;;;16.00;53.24;100442.13;4942095;28;20684;-70
2022/09/08 05:30:12;;;;;;;10.93;3.70;;;15.90;15.00;;;16.03;53.34;100443.50;4939383;28;20510;-71
2022/09/08 05:32:40;;;;;;;3.70;3.27;;;15.90;15.00;;;16.08;53.21;100447.16;4932870;28;20514;-70
2022/09/08 05:35:10;;;;;;;5.73;4.10;;;15.80;15.10;;;16.15;53.24;100451.63;4947667;28;20456;-71
2022/09/08 05:37:40;;;;;;;7.90;4.03;;;15.90;15.30;;;16.20;52.99;100451.69;4946616;29;20424;-72
2022/09/08 05:40:10;;;;;;;4.83;3.90;;;16.00;15.00;;;16.22;53.07;100457.72;4945562;29;20419;-71
2022/09/08 05:42:39;;;;;;;4.90;4.40;;;16.00;15.00;;;16.29;52.83;100453.75;4948301;29;20450;-71
2022/09/08 05:45:10;;;;;;;4.80;4.13;;;16.10;14.80;;;16.26;52.96;100462.47;4946301;29;20465;-74
2022/09/08 05:47:39;;;;;;;9.40;4.00;;;16.10;14.80;;;16.30;52.82;100460.88;4943391;29;20436;-72
2022/09/08 05:50:09;;;;;;;6.43;4.10;;;16.10;14.80;;;16.41;52.62;100456.41;4944818;29;20914;-72
2022/09/08 05:52:39;;;;;;;7.90;4.30;;;16.10;14.60;;;16.35;52.64;100449.22;4940122;29;20467;-72
2022/09/08 05:55:09;;;;;;;5.80;4.10;;;16.20;14.50;;;16.36;52.50;100451.66;4949549;28;20542;-71
2022/09/08 05:57:39;;;;;;;11.00;4.97;;;16.20;14.40;;;16.40;52.72;100452.00;4936830;28;20427;-71
2022/09/08 06:00:10;;;;;;;5.27;4.00;;;16.20;14.50;;;16.32;52.87;100438.78;4936256;29;20475;-71
2022/09/08 06:02:39;;;;;;;8.40;4.47;;;16.20;14.50;;;16.43;52.88;100440.56;4938195;29;21000;-72
2022/09/08 06:05:10;;;;;;;7.83;4.23;;;16.20;14.70;;;16.48;52.76;100446.13;4932835;29;20464;-71
2022/09/08 06:07:40;;;;;;;6.50;3.13;;;16.20;14.60;;;16.64;52.23;100450.75;4935967;29;20419;-71
2022/09/08 06:10:11;;;;;;;5.83;3.73;;;16.30;14.50;;;16.59;52.48;100453.41;4937258;29;20410;-74
2022/09/08 06:12:40;;;;;;;6.40;4.03;;;16.30;14.40;;;16.46;52.61;100451.81;4935976;29;20430;-71
2022/09/08 06:15:11;;;;;;;12.63;4.80;;;16.30;14.20;;;16.49;52.58;100450.50;4929702;29;20915;-71
2022/09/08 06:17:40;;;;;;;7.37;4.83;;;16.30;14.30;;;16.50;52.81;100450.25;4932905;29;20950;-71
2022/09/08 06:20:10;;;;;;;6.27;4.60;;;16.30;14.50;;;16.56;52.55;100453.88;4926789;29;20488;-71
2022/09/08 06:22:40;;;;;;;4.23;3.50;;;16.30;14.40;;;16.64;52.53;100441.72;4933139;29;20995;-70
2022/09/08 06:25:10;;;;;;;4.87;4.37;;;16.40;14.60;;;16.67;52.46;100446.66;4923944;29;20451;-72
2022/09/08 06:27:56;;;;;;;8.33;5.43;;;16.40;14.40;;;16.69;52.38;100445.34;4931826;29;20919;-71
2022/09/08 06:30:25;;;;;;;5.53;4.23;;;16.40;14.40;;;16.72;52.54;100444.84;4924937;29;20437;-73
2022/09/08 06:33:19;;;;;;;6.23;4.10;;;16.50;14.60;;;16.67;52.62;100452.13;4932145;29;20919;-71
2022/09/08 06:36:08;;;;;;;13.23;7.30;;;16.40;14.50;;;16.70;52.83;100451.66;4935584;29;20428;-71
2022/09/08 06:38:48;;;;;;;8.43;5.10;;;16.50;14.80;;;16.80;52.73;100447.13;4929621;29;20854;-74
2022/09/08 06:41:22;;;;;;;7.10;4.90;;;16.50;14.80;;;16.80;52.71;100444.38;4935197;29;20414;-71
2022/09/08 06:43:57;;;;;;;7.33;4.77;;;16.50;14.70;;;16.86;52.65;100445.28;4943116;29;20533;-73
2022/09/08 06:46:32;;;;;;;10.60;5.23;;;16.60;14.90;;;17.01;52.44;100455.56;4950310;29;20482;-71
2022/09/08 06:49:01;;;;;;;14.13;5.00;;;16.70;14.80;;;16.98;52.47;100442.44;4948642;29;20423;-71
2022/09/08 06:51:42;;;;;;;9.20;6.50;;;16.70;14.60;;;17.00;52.49;100445.72;4944452;29;20441;-73
2022/09/08 06:54:46;;;;;;;8.57;4.60;;;16.70;14.70;;;17.07;52.39;100441.72;4946832;29;20442;-72
2022/09/08 06:57:35;;;;;;;9.40;4.43;;;16.80;14.70;;;17.15;52.25;100445.91;4935903;29;20426;-74
2022/09/08 07:00:29;;;;;;;10.50;4.90;;;16.90;14.70;;;17.15;52.27;100433.06;4937462;29;20450;-71
2022/09/08 07:03:20;;;;;;;5.60;4.20;;;16.90;14.60;;;17.17;52.26;100438.28;4944663;29;20442;-72
2022/09/08 07:06:07;;;;;;;9.40;4.83;;;16.90;14.50;;;17.04;52.67;100433.22;4947459;29;20439;-72
2022/09/08 07:09:07;;;;;;;8.53;5.40;;;16.90;14.60;;;17.11;52.72;100425.63;4945464;29;20538;-72
2022/09/08 07:11:58;;;;;;;6.03;5.10;;;16.90;14.80;;;17.16;52.70;100420.22;4947586;29;20495;-71
2022/09/08 07:15:04;;;;;;;9.70;4.63;;;16.90;14.80;;;17.23;52.69;100415.38;4977567;23;20609;-72
2022/09/08 07:17:41;;;;;;;6.30;5.60;;;17.00;15.00;;;17.30;52.73;100424.19;4933692;29;20622;-72
2022/09/08 07:20:13;;;;;;;7.90;4.40;;;17.10;15.00;;;17.36;52.48;100413.06;4945966;29;20468;-72
2022/09/08 07:22:52;;;;;;;8.77;5.37;;;17.10;15.10;;;17.44;52.56;100414.50;4948271;29;20439;-71
2022/09/08 07:25:30;;;;;;;11.33;4.40;;;17.10;15.10;;;17.51;52.43;100406.91;4946128;28;20454;-71
2022/09/08 07:28:05;;;;;;;4.70;4.10;;;17.20;15.10;;;17.70;52.36;100413.69;4944318;29;20416;-73
2022/09/08 07:30:38;;;;;;;10.00;5.57;;;17.30;15.10;;;17.91;52.01;100398.22;4944308;29;20429;-71
2022/09/08 07:33:22;;;;;;;10.30;5.60;;;17.50;15.00;;;17.94;51.97;100399.63;4948023;29;20476;-71
2022/09/08 07:36:14;;;;;;;9.00;4.43;;;17.60;14.70;;;18.00;51.98;100390.38;4946174;29;20464;-72
2022/09/08 07:38:49;;;;;;;9.77;5.43;;;17.70;14.70;;;18.14;51.90;100391.56;4940208;29;20478;-72
2022/09/08 07:41:25;;;;;;;10.07;5.10;;;17.70;14.90;;;18.26;51.24;100392.19;4949019;29;20469;-72
2022/09/08 07:44:10;;;;;;;8.40;5.57;;;17.90;14.50;;;18.27;51.50;100412.19;4940875;29;20457;-70
2022/09/08 07:47:10;;;;;;;9.00;5.07;;;17.90;14.30;;;18.33;51.31;100427.56;4945063;29;20467;-72
2022/09/08 07:49:53;;;;;;;7.00;4.43;;;18.00;14.30;;;18.53;51.06;100431.28;4968140;28;20415;-72
2022/09/08 07:52:39;;;;;;;8.40;4.67;;;18.00;14.50;;;18.54;51.11;100435.66;4969051;28;20451;-72
2022/09/08 07:55:23;;;;;;;7.57;5.20;;;18.20;14.50;;;18.79;51.10;100417.69;4952900;29;20463;-73
2022/09/08 07:58:06;;;;;;;11.00;6.23;;;18.30;14.40;;;18.91;50.69;100423.78;4955856;29;20423;-72
2022/09/08 08:00:52;;;;;;;7.57;4.40;;;18.50;14.20;;;19.11;50.60;100426.59;4951460;29;20650;-73
2022/09/08 08:03:58;;;;;;;6.40;4.80;;;18.70;14.00;;;19.53;49.64;100416.28;4942199;29;20926;-71
2022/09/08 08:06:39;;;;;;;11.10;5.57;;;18.90;13.60;;;19.85;49.01;100426.16;4947357;28;20473;-70
2022/09/08 08:09:27;;;;;;;11.07;5.60;;;19.20;13.00;;;19.85;48.79;100412.44;4942345;29;20419;-71
2022/09/08 08:12:07;;;;;;;9.40;6.10;;;19.40;12.50;;;19.93;48.66;100423.72;4939445;29;20454;-72
2022/09/08 08:14:47;;;;;;;7.97;5.83;;;19.40;12.20;;;19.50;49.69;100414.09;4942753;29;20442;-71
2022/09/08 08:17:37;;;;;;;9.83;5.70;;;19.30;12.40;;;19.32;50.18;100419.22;4947108;29;20475;-70
2022/09/08 08:20:41;;;;;;;7.47;6.67;;;19.10;12.70;;;19.23;51.01;100418.94;4947781;29;20500;-72
2022/09/08 08:23:46;;;;;;;6.67;5.30;;;18.90;14.10;;;19.33;50.79;100421.69;4937333;29;20427;-73
2022/09/08 08:26:34;;;;;;;7.90;5.97;;;18.90;13.90;;;19.21;51.52;100420.31;4949801;28;20932;-71
2022/09/08 08:29:41;;;;;;;15.50;5.53;;;18.90;14.30;;;19.19;51.69;100417.84;4938713;29;20487;-72
2022/09/08 08:32:13;;;;;;;7.63;5.77;;;18.90;14.60;;;19.16;52.22;100412.91;4941466;29;20457;-72
2022/09/08 08:35:14;;;;;;;7.77;6.00;;;18.80;15.00;;;18.91;52.91;100401.84;4943887;29;20950;-71
2022/09/08 08:37:49;;;;;;;7.50;5.87;;;18.70;15.60;;;18.77;53.46;100390.56;4942153;29;20463;-71
2022/09/08 08:40:37;;;;;;;11.73;5.67;;;18.60;16.10;;;18.89;53.80;100398.53;4939044;29;20472;-72
2022/09/08 08:43:55;;;;;;;9.30;6.40;;;18.60;16.90;;;18.98;53.32;100402.41;4937217;29;20467;-71
2022/09/08 08:47:15;;;;;;;7.73;6.30;;;18.60;17.40;;;18.78;54.44;100407.84;4952198;28;20531;-71
2022/09/08 08:50:17;;;;;;;7.50;6.13;;;18.50;17.50;;;18.54;55.99;100411.00;4944090;29;20958;-72
2022/09/08 08:53:14;;;;;;;11.37;7.77;;;18.40;19.70;;;18.46;58.18;100406.00;4941365;29;20438;-72
2022/09/08 08:55:58;;;;;;;7.80;6.40;;;18.20;23.70;;;18.22;59.44;100393.78;4942347;29;20467;-71
2022/09/08 08:59:06;;;;;;;15.23;7.63;;;18.00;25.70;;;17.98;64.93;100393.38;4939479;29;20498;-72
2022/09/08 09:01:56;;;;;;;7.50;6.20;;;17.80;39.40;;;17.85;61.86;100393.00;4937131;29;20892;-72
2022/09/08 09:04:58;;;;;;;13.00;6.97;;;17.60;39.40;;;17.84;63.75;100385.88;4942286;29;20490;-71
2022/09/08 09:08:08;;;;;;;12.97;6.60;;;17.50;51.90;;;17.85;66.19;100382.06;4938681;29;20495;-72
2022/09/08 09:11:06;;;;;;;13.50;7.83;;;17.40;69.90;;;17.83;66.14;100374.09;4940909;29;20438;-71
2022/09/08 09:14:08;;;;;;;13.87;9.83;;;17.40;91.50;;;17.87;65.32;100369.75;4941203;29;20567;-71
2022/09/08 09:17:04;;;;;;;16.27;12.67;;;17.50;85.50;;;17.88;65.36;100365.91;4940019;29;20516;-71
2022/09/08 09:20:03;;;;;;;18.43;10.70;;;17.60;89.60;;;17.80;66.21;100359.03;4938509;29;20480;-71
2022/09/08 09:22:48;;;;;;;14.40;9.73;;;17.60;90.70;;;17.74;66.68;100360.06;4939828;29;20524;-71
2022/09/08 09:25:31;;;;;;;10.90;7.33;;;17.60;91.80;;;17.70;67.44;100353.47;4942075;29;20873;-71
2022/09/08 09:28:54;;;;;;;9.57;7.57;;;17.60;94.50;;;17.99;66.36;100350.41;4935581;29;20553;-72
2022/09/08 09:32:14;;;;;;;8.20;7.27;;;17.60;93.40;;;17.93;66.93;100345.97;4949185;29;20929;-71
2022/09/08 09:35:28;;;;;;;13.80;9.00;;;17.70;93.60;;;18.13;66.92;100332.41;4944244;29;20507;-70
2022/09/08 09:38:48;;;;;;;10.90;7.87;;;17.80;96.00;;;18.32;66.91;100330.88;4936213;29;20426;-71
2022/09/08 09:42:08;;;;;;;10.23;7.63;;;17.80;97.10;;;18.33;66.48;100328.94;4934655;29;20475;-70
2022/09/08 09:45:15;;;;;;;11.20;8.27;;;18.00;96.30;;;18.34;66.66;100325.97;4935425;29;20864;-70
2022/09/08 09:48:19;;;;;;;9.53;8.53;;;18.00;97.50;;;18.25;67.32;100325.63;4935470;29;20456;-72
2022/09/08 09:51:20;;;;;;;15.77;8.07;;;18.00;98.50;;;18.26;70.63;100323.72;4938328;29;20488;-71
2022/09/08 09:54:39;;;;;;;11.50;9.90;;;17.90;99.90;;;18.32;67.85;100319.91;4938206;29;20448;-72
2022/09/08 09:57:50;;;;;;;10.37;8.33;;;18.00;99.90;;;18.44;67.50;100311.47;4945854;29;20537;-72
2022/09/08 10:00:20;;;;;;;10.80;9.13;;;18.10;99.80;;;18.54;67.59;100309.59;4943311;29;20548;-70
2022/09/08 10:03:35;;;;;;;11.87;9.13;;;18.20;99.90;;;18.80;67.35;100313.25;4939810;29;21052;-72
2022/09/08 10:06:27;;;;;;;15.23;8.93;;;18.30;99.90;;;18.85;67.15;100321.50;4945702;28;20903;-72
2022/09/08 10:09:45;;;;;;;11.30;8.30;;;18.40;99.90;;;18.90;65.88;100323.44;4958186;28;20430;-71
2022/09/08 10:13:31;;;;;;;10.80;8.30;;;18.50;97.30;;;18.92;66.57;100332.22;4944061;29;20512;-72
2022/09/08 10:16:47;;;;;;;13.93;9.60;;;18.50;96.10;;;18.93;65.17;100331.94;4899666;29;20468;-70
2022/09/08 10:20:14;;;;;;;11.20;8.80;;;18.50;95.10;;;18.88;69.35;100331.13;4951767;28;20520;-70
2022/09/08 10:23:25;;;;;;;14.90;8.00;;;18.50;99.90;;;18.82;69.11;100354.13;4933791;29;20464;-71
2022/09/08 10:26:49;;;;;;;12.63;9.30;;;18.50;99.90;;;18.81;67.24;100360.69;4923153;29;20480;-71
2022/09/08 10:30:11;;;;;;;9.23;8.13;;;18.60;99.90;;;18.67;68.71;100363.94;4933516;29;20791;-71
2022/09/08 10:33:37;;;;;;;12.13;10.07;;;18.40;99.90;;;18.51;69.76;100369.56;4917777;29;20458;-70
2022/09/08 10:36:09;;;;;;;9.70;8.70;;;18.30;99.90;;;18.50;70.32;100374.22;4931683;29;20662;-70
2022/09/08 10:39:02;;;;;;;10.90;9.43;;;18.20;99.90;;;18.43;71.43;100379.13;4936620;28;20472;-69
2022/09/08 10:42:17;;;;;;;12.10;9.50;;;18.10;99.90;;;18.26;71.58;100386.69;4938092;29;20469;-71
2022/09/08 10:44:58;;;;;;;12.37;9.30;;;18.00;99.90;;;18.02;71.27;100405.44;4929077;29;20436;-70
2022/09/08 10:48:19;;;;;;;12.80;9.20;;;17.80;99.90;;;18.10;72.71;100412.34;4936856;29;20462;-70
2022/09/08 10:50:52;;;;;;;14.90;10.20;;;17.80;99.90;;;17.97;74.32;100408.13;4932532;29;20423;-69
2022/09/08 10:53:49;;;;;;;18.43;9.80;;;17.80;99.90;;;17.84;76.28;100405.84;4935344;29;20419;-69
2022/09/08 10:56:27;;;;;;;12.10;10.20;;;17.70;99.90;;;17.65;76.79;100371.75;4939191;28;20439;-70
2022/09/08 10:59:52;;;;;;;11.10;9.03;;;17.50;99.90;;;17.64;77.56;100349.03;4933861;28;20994;-72
2022/09/08 11:02:31;;;;;;;12.70;11.40;;;17.50;99.90;;;17.05;80.33;100328.22;4895102;29;20495;-71
2022/09/08 11:05:49;;;;;;;18.53;11.47;;;17.10;99.90;;;17.12;82.83;100378.91;4934521;29;20530;-74
2022/09/08 11:09:29;;;;;;;21.67;11.73;;;17.00;99.90;;;17.22;84.53;100378.19;4933725;29;20460;-69